createdAt,value
2019-01-25T00:00:15.371Z,31
2019-01-25T00:05:17.820Z,32
2019-01-25T00:10:20.282Z,33
2019-01-25T00:15:22.742Z,34
2019-01-25T00:20:25.196Z,30
2019-01-25T00:25:27.658Z,33
2019-01-25T00:30:30.129Z,29
2019-01-25T00:35:32.686Z,33
2019-01-25T00:40:35.019Z,32
2019-01-25T00:45:37.481Z,31
2019-01-25T00:50:39.943Z,30
2019-01-25T00:55:42.394Z,31
2019-01-25T01:00:44.862Z,31
2019-01-25T01:05:47.353Z,33
2019-01-25T01:10:49.773Z,30
2019-01-25T01:15:52.213Z,32
2019-01-25T01:20:54.689Z,31
2019-01-25T01:25:57.150Z,31
2019-01-25T01:30:59.620Z,33
2019-01-25T01:36:02.071Z,33
2019-01-25T01:41:04.507Z,34
2019-01-25T01:46:07.052Z,34
2019-01-25T01:51:09.450Z,34
2019-01-25T01:56:11.879Z,31
2019-01-25T02:01:14.332Z,35
2019-01-25T02:06:16.793Z,34
2019-01-25T02:11:19.268Z,36
2019-01-25T02:16:21.705Z,35
2019-01-25T02:21:24.156Z,35
2019-01-25T02:26:26.654Z,32
2019-01-25T02:31:29.069Z,35
2019-01-25T02:36:31.534Z,35
2019-01-25T02:41:34.026Z,36
2019-01-25T02:46:36.438Z,34
2019-01-25T02:51:38.928Z,34
2019-01-25T02:56:41.374Z,36
2019-01-25T03:01:43.876Z,35
2019-01-25T03:06:46.330Z,37
2019-01-25T03:11:48.727Z,36
2019-01-25T03:16:51.182Z,39
2019-01-25T03:21:53.665Z,32
2019-01-25T03:26:56.095Z,34
2019-01-25T03:32:03.557Z,35
2019-01-25T03:37:01.003Z,34
2019-01-25T03:42:03.465Z,36
2019-01-25T03:47:05.941Z,35
2019-01-25T03:52:08.379Z,36
2019-01-25T03:57:10.835Z,34
2019-01-25T04:02:13.300Z,34
2019-01-25T04:07:15.751Z,35
2019-01-25T04:12:18.204Z,37
2019-01-25T04:17:20.651Z,36
2019-01-25T04:22:23.111Z,36
2019-01-25T04:27:25.586Z,34
2019-01-25T04:32:28.031Z,35
2019-01-25T04:37:30.473Z,36
2019-01-25T04:42:33.057Z,36
2019-01-25T04:47:35.396Z,34
2019-01-25T04:52:37.865Z,35
2019-01-25T04:57:40.361Z,35
2019-01-25T05:02:42.844Z,39
2019-01-25T05:07:45.220Z,35
2019-01-25T05:12:49.005Z,37
2019-01-25T05:17:50.141Z,35
2019-01-25T05:22:52.614Z,31
2019-01-25T05:27:55.143Z,35
2019-01-25T05:32:57.565Z,34
2019-01-25T05:37:59.971Z,36
2019-01-25T05:43:02.542Z,34
2019-01-25T05:48:04.888Z,33
2019-01-25T05:53:07.404Z,32
2019-01-25T05:58:09.788Z,30
2019-01-25T06:03:12.279Z,32
2019-01-25T06:08:14.699Z,30
2019-01-25T06:13:17.160Z,32
2019-01-25T06:18:19.631Z,30
2019-01-25T06:23:22.078Z,29
2019-01-25T06:28:24.537Z,32
2019-01-25T06:33:27.006Z,33
2019-01-25T06:38:29.452Z,31
2019-01-25T06:43:31.908Z,35
2019-01-25T06:53:36.816Z,31
2019-01-25T06:58:39.283Z,30
2019-01-25T07:03:41.747Z,31
2019-01-25T07:08:44.193Z,31
2019-01-25T07:13:46.642Z,30
2019-01-25T07:18:49.101Z,33
2019-01-25T07:23:51.555Z,33
2019-01-25T07:28:54.096Z,33
2019-01-25T07:33:56.513Z,31
2019-01-25T07:38:58.961Z,28
2019-01-25T07:44:01.390Z,30
2019-01-25T07:49:03.916Z,29
2019-01-25T07:54:06.342Z,29
2019-01-25T07:59:08.782Z,32
2019-01-25T08:04:11.217Z,27
2019-01-25T08:09:13.676Z,27
2019-01-25T08:14:16.187Z,40
2019-01-25T08:19:18.605Z,31
2019-01-25T08:24:21.052Z,30
2019-01-25T08:29:27.822Z,30
2019-01-25T08:34:25.976Z,31
2019-01-25T08:39:28.418Z,27
2019-01-25T08:44:30.870Z,25
2019-01-25T08:49:33.327Z,41
2019-01-25T08:54:35.795Z,27
2019-01-25T08:59:38.250Z,26
2019-01-25T09:04:40.709Z,25
2019-01-25T09:09:43.197Z,27
2019-01-25T09:14:45.616Z,32
2019-01-25T09:19:48.127Z,29
2019-01-25T09:24:50.622Z,31
2019-01-25T09:29:53.069Z,30
2019-01-25T09:34:55.463Z,30
2019-01-25T09:39:57.957Z,30
2019-01-25T09:45:00.394Z,29
2019-01-25T09:50:02.938Z,33
2019-01-25T09:55:05.393Z,34
2019-01-25T10:00:07.818Z,31
2019-01-25T10:05:10.244Z,33
2019-01-25T10:10:12.798Z,32
2019-01-25T10:15:15.187Z,30
2019-01-25T10:20:17.690Z,27
2019-01-25T10:25:20.099Z,29
2019-01-25T10:30:22.576Z,28
2019-01-25T10:35:25.020Z,29
2019-01-25T10:40:27.485Z,31
2019-01-25T10:45:29.977Z,30
2019-01-25T10:50:32.515Z,31
2019-01-25T10:55:34.889Z,32
2019-01-25T11:00:37.382Z,33
2019-01-25T11:05:39.816Z,35
2019-01-25T11:10:42.297Z,33
2019-01-25T11:15:44.792Z,35
2019-01-25T11:20:47.222Z,30
2019-01-25T11:25:49.683Z,32
2019-01-25T11:30:52.142Z,32
2019-01-25T11:35:54.591Z,27
2019-01-25T11:40:57.057Z,31
2019-01-25T11:45:59.527Z,31
2019-01-25T11:51:02.059Z,31
2019-01-25T11:56:04.443Z,31
2019-01-25T12:01:06.935Z,27
2019-01-25T12:06:09.469Z,29
2019-01-25T12:11:11.879Z,29
2019-01-25T12:16:14.370Z,31
2019-01-25T12:21:16.852Z,31
2019-01-25T12:26:19.287Z,35
2019-01-25T12:31:21.720Z,30
2019-01-25T12:36:24.215Z,31
2019-01-25T12:41:26.619Z,33
2019-01-25T12:46:29.082Z,33
2019-01-25T12:51:31.540Z,32
2019-01-25T12:56:34.024Z,29
2019-01-25T13:01:36.452Z,34
2019-01-25T13:06:38.919Z,35
2019-01-25T13:11:41.375Z,37
2019-01-25T13:16:43.812Z,35
2019-01-25T13:21:46.448Z,36
2019-01-25T13:26:48.757Z,35
2019-01-25T13:31:51.223Z,38
2019-01-25T13:36:57.073Z,34
2019-01-25T13:41:56.140Z,35
2019-01-25T13:46:58.579Z,35
2019-01-25T13:52:01.037Z,32
2019-01-25T13:57:03.529Z,25
2019-01-25T14:02:05.957Z,32
2019-01-25T14:07:08.406Z,30
2019-01-25T14:12:10.877Z,30
2019-01-25T14:17:13.324Z,35
2019-01-25T14:22:15.781Z,32
2019-01-25T14:27:18.245Z,30
2019-01-25T14:32:20.707Z,34
2019-01-25T14:37:23.181Z,30
2019-01-25T14:42:25.674Z,26
2019-01-25T14:47:28.108Z,17
2019-01-25T14:52:30.626Z,19
2019-01-25T14:57:32.965Z,19
2019-01-25T15:02:35.440Z,26
2019-01-25T15:07:37.959Z,31
2019-01-25T15:12:40.352Z,25
2019-01-25T15:17:42.812Z,27
2019-01-25T15:22:45.254Z,25
2019-01-25T15:32:50.188Z,24
2019-01-25T15:37:52.670Z,25
2019-01-25T15:42:55.104Z,21
2019-01-25T15:47:57.545Z,18
2019-01-25T15:52:59.993Z,21
2019-01-25T15:58:02.518Z,19
2019-01-25T16:03:04.926Z,21
2019-01-25T16:08:07.395Z,21
2019-01-25T16:13:09.823Z,21
2019-01-25T16:18:12.277Z,21
2019-01-25T16:23:14.759Z,22
2019-01-25T16:28:17.206Z,22
2019-01-25T16:33:19.651Z,14
2019-01-25T16:38:22.135Z,11
2019-01-25T16:43:24.575Z,15
2019-01-25T16:48:27.034Z,17
2019-01-25T16:53:29.468Z,16
2019-01-25T16:58:32.012Z,20
2019-01-25T17:03:34.405Z,12
2019-01-25T17:08:36.872Z,10
2019-01-25T17:13:39.297Z,17
2019-01-25T17:18:41.750Z,16
2019-01-25T17:23:44.226Z,16
2019-01-25T17:28:46.708Z,18
2019-01-25T17:33:49.148Z,17
2019-01-25T17:38:51.598Z,14
2019-01-25T17:43:54.081Z,16
2019-01-25T17:48:56.490Z,13
2019-01-25T17:53:58.955Z,16
2019-01-25T17:59:01.476Z,12
2019-01-25T18:04:03.862Z,18
2019-01-25T18:09:06.353Z,13
2019-01-25T18:14:08.876Z,18
2019-01-25T18:19:11.272Z,15
2019-01-25T18:24:13.731Z,10
2019-01-25T18:29:16.310Z,19
2019-01-25T18:34:18.660Z,19
2019-01-25T18:39:21.067Z,19
2019-01-25T18:44:23.530Z,21
2019-01-25T18:49:25.975Z,25
2019-01-25T18:54:28.432Z,23
2019-01-25T18:59:30.901Z,22
2019-01-25T19:04:33.386Z,20
2019-01-25T19:09:35.894Z,22
2019-01-25T19:14:38.265Z,19
2019-01-25T19:19:40.735Z,20
2019-01-25T19:24:43.179Z,15
2019-01-25T19:29:45.917Z,19
2019-01-25T19:34:48.126Z,19
2019-01-25T19:39:50.555Z,19
2019-01-25T19:44:52.991Z,16
2019-01-25T19:49:55.459Z,15
2019-01-25T19:54:57.919Z,14
2019-01-25T20:00:00.404Z,17
2019-01-25T20:05:02.841Z,9
2019-01-25T20:10:05.286Z,14
2019-01-25T20:15:07.765Z,16
2019-01-25T20:20:10.293Z,21
2019-01-25T20:25:12.699Z,15
2019-01-25T20:30:15.201Z,13
2019-01-25T20:35:17.659Z,13
2019-01-25T20:40:20.050Z,14
2019-01-25T20:45:26.988Z,15
2019-01-25T20:50:25.001Z,16
2019-01-25T20:55:27.440Z,16
2019-01-25T21:05:32.345Z,14
2019-01-25T21:10:34.762Z,14
2019-01-25T21:15:37.335Z,15
2019-01-25T21:20:39.666Z,9
2019-01-25T21:25:42.179Z,15
2019-01-25T21:30:44.593Z,10
2019-01-25T21:35:47.065Z,13
2019-01-25T21:40:49.499Z,12
2019-01-25T21:45:51.980Z,13
2019-01-25T21:50:54.403Z,12
2019-01-25T21:55:56.874Z,15
2019-01-25T22:00:59.343Z,15
2019-01-25T22:06:01.838Z,11
2019-01-25T22:11:04.253Z,10
2019-01-25T22:16:07.034Z,11
2019-01-25T22:21:09.168Z,9
2019-01-25T22:26:11.622Z,10
2019-01-25T22:31:14.071Z,11
2019-01-25T22:36:16.530Z,10
2019-01-25T22:41:19.001Z,11
2019-01-25T22:46:21.450Z,14
2019-01-25T22:51:24.014Z,11
2019-01-25T22:56:26.380Z,10
2019-01-25T23:01:28.827Z,9
2019-01-25T23:06:31.341Z,7
2019-01-25T23:11:33.737Z,13
2019-01-25T23:16:36.212Z,7
2019-01-25T23:21:38.656Z,7
2019-01-25T23:26:41.102Z,11
2019-01-25T23:31:43.577Z,10
2019-01-25T23:36:46.013Z,12
2019-01-25T23:41:48.492Z,10
2019-01-25T23:46:50.931Z,10
2019-01-25T23:51:53.398Z,10
2019-01-25T23:56:55.865Z,9
